Time;durP1;ratioP1;P1;durP2;ratioP2;P2;SDS_P1;SDS_P2;PMS_P1;PMS_P2;Temp;Humidity;BMP_temperature;BMP_pressure;BME280_temperature;BME280_humidity;BME280_pressure;Samples;Min_cycle;Max_cycle;Signal;HPM_P1;HPM_P2
2022/09/09 00:00:33;;;;;;;0.82;0.47;;;;;;;15.49;95.26;98626.28;5088522;28;20032;-56
2022/09/09 00:03:45;;;;;;;0.40;0.20;;;;;;;15.22;96.19;98629.63;5090355;28;20028;-56
2022/09/09 00:06:44;;;;;;;1.02;0.40;;;;;;;15.23;96.86;98636.53;5087577;28;20032;-52
2022/09/09 00:09:34;;;;;;;0.77;0.40;;;;;;;15.36;95.75;98634.47;5088083;28;20127;-58
2022/09/09 00:12:29;;;;;;;1.13;0.30;;;;;;;15.67;95.55;98644.03;5079102;28;20036;-54
2022/09/09 00:15:20;;;;;;;2.05;0.50;;;;;;;16.00;94.60;98634.00;5088065;28;20071;-55
2022/09/09 00:18:18;;;;;;;1.63;0.40;;;;;;;16.20;98.14;98641.84;5086192;28;20054;-53
2022/09/09 00:21:10;;;;;;;0.50;0.25;;;;;;;16.49;96.37;98655.91;5084676;28;20044;-55
2022/09/09 00:23:55;;;;;;;0.73;0.22;;;;;;;16.56;94.52;98653.53;5083478;28;20212;-54
2022/09/09 00:26:50;;;;;;;0.30;0.20;;;;;;;16.17;95.17;98642.16;5072426;28;20118;-56
2022/09/09 00:29:45;;;;;;;0.68;0.35;;;;;;;15.52;97.85;98638.38;5084316;28;20082;-54
2022/09/09 00:32:35;;;;;;;0.43;0.20;;;;;;;15.00;100.00;98631.53;5085427;28;20036;-57
2022/09/09 00:35:25;;;;;;;1.48;0.40;;;;;;;15.09;100.00;98620.19;5083195;28;20048;-56
2022/09/09 00:38:14;;;;;;;0.30;0.20;;;;;;;15.04;99.04;98622.38;5079666;28;20120;-58
2022/09/09 00:41:20;;;;;;;0.40;0.30;;;;;;;15.11;97.76;98612.94;5081755;28;20174;-51
2022/09/09 00:44:24;;;;;;;0.73;0.30;;;;;;;15.34;99.07;98617.13;5085322;28;20509;-56
2022/09/09 00:47:45;;;;;;;0.30;0.20;;;;;;;15.75;95.73;98615.09;5088503;28;20451;-56
2022/09/09 00:50:52;;;;;;;1.25;0.30;;;;;;;15.50;95.62;98627.09;5088668;28;20132;-56
2022/09/09 00:54:04;;;;;;;0.40;0.30;;;;;;;15.69;96.50;98635.97;5088766;28;20048;-57
2022/09/09 00:57:13;;;;;;;0.55;0.20;;;;;;;15.80;96.55;98646.38;5089066;28;20074;-54
2022/09/09 01:00:19;;;;;;;0.60;0.30;;;;;;;15.84;95.88;98645.13;5088341;28;20379;-54
2022/09/09 01:03:21;;;;;;;0.73;0.17;;;;;;;15.89;96.75;98642.06;5084756;28;20032;-55
2022/09/09 01:06:34;;;;;;;1.15;0.30;;;;;;;15.81;94.51;98637.50;5075515;28;20044;-55
2022/09/09 01:09:51;;;;;;;2.20;0.28;;;;;;;15.32;95.91;98633.09;5088748;28;20731;-55
2022/09/09 01:12:43;;;;;;;0.82;0.40;;;;;;;14.87;99.21;98639.69;5084569;28;20097;-52
2022/09/09 01:15:34;;;;;;;0.55;0.22;;;;;;;14.62;100.00;98640.03;5089086;28;20119;-57
2022/09/09 01:18:23;;;;;;;0.68;0.30;;;;;;;14.68;100.00;98645.75;5078410;28;20360;-53
2022/09/09 01:21:32;;;;;;;0.28;0.15;;;;;;;14.71;100.00;98643.69;5089977;28;20111;-57
2022/09/09 01:24:40;;;;;;;0.73;0.15;;;;;;;15.12;100.00;98646.28;5086415;28;20048;-53
2022/09/09 01:27:36;;;;;;;1.45;0.30;;;;;;;15.40;100.00;98648.22;5088514;28;20625;-55
2022/09/09 01:30:21;;;;;;;0.93;0.30;;;;;;;15.36;99.91;98660.88;5064826;28;20035;-53
2022/09/09 01:33:12;;;;;;;1.85;0.25;;;;;;;15.70;99.72;98662.22;5087604;28;20450;-54
2022/09/09 01:36:12;;;;;;;2.63;0.30;;;;;;;15.88;96.55;98651.78;5099873;28;20051;-54
2022/09/09 01:39:04;;;;;;;2.78;0.70;;;;;;;15.42;97.07;98661.28;5087265;28;20136;-53
2022/09/09 01:41:50;;;;;;;1.80;0.50;;;;;;;15.07;98.39;98660.84;5087802;28;20484;-53
2022/09/09 01:44:37;;;;;;;0.60;0.32;;;;;;;15.09;100.00;98657.09;5088746;28;20119;-54
2022/09/09 01:47:22;;;;;;;0.93;0.30;;;;;;;15.02;99.34;98648.91;5085782;28;20041;-53
2022/09/09 01:50:22;;;;;;;0.80;0.32;;;;;;;15.00;100.00;98652.63;5088881;28;20524;-52
2022/09/09 01:53:07;;;;;;;0.75;0.30;;;;;;;15.08;100.00;98658.06;5088834;28;20036;-53
2022/09/09 01:56:04;;;;;;;0.50;0.22;;;;;;;15.42;100.00;98642.81;5087545;28;20071;-56
2022/09/09 01:59:20;;;;;;;0.47;0.20;;;;;;;15.79;98.32;98652.63;5100217;28;20051;-54
2022/09/09 02:02:13;;;;;;;0.60;0.38;;;;;;;15.72;95.98;98651.53;5095559;28;20150;-54
2022/09/09 02:05:22;;;;;;;0.70;0.30;;;;;;;15.17;97.69;98653.78;5078737;28;20040;-52
2022/09/09 02:08:26;;;;;;;1.00;0.40;;;;;;;14.76;100.00;98659.94;5088308;28;20052;-52
2022/09/09 02:11:24;;;;;;;1.83;0.40;;;;;;;14.74;100.00;98653.94;5088636;28;20047;-49
2022/09/09 02:14:22;;;;;;;1.40;0.40;;;;;;;14.62;100.00;98663.75;5089139;28;20426;-52
2022/09/09 02:17:10;;;;;;;0.68;0.25;;;;;;;14.43;100.00;98661.09;5088373;28;20044;-55
2022/09/09 02:20:18;;;;;;;1.13;0.60;;;;;;;14.34;100.00;98658.28;5089281;28;20115;-52
2022/09/09 02:23:11;;;;;;;1.83;0.50;;;;;;;14.27;100.00;98654.47;5088295;28;20044;-55
2022/09/09 02:25:58;;;;;;;0.80;0.60;;;;;;;14.33;100.00;98659.22;5087237;28;20115;-51
2022/09/09 02:28:44;;;;;;;0.82;0.40;;;;;;;14.36;100.00;98653.69;5075984;28;20094;-53
2022/09/09 02:31:30;;;;;;;1.50;0.80;;;;;;;14.30;100.00;98656.84;5080157;28;20093;-56
2022/09/09 02:34:24;;;;;;;0.75;0.55;;;;;;;14.25;100.00;98659.03;5084087;28;20636;-55
2022/09/09 02:37:10;;;;;;;0.85;0.60;;;;;;;14.25;100.00;98659.88;5087833;28;20443;-54
2022/09/09 02:39:57;;;;;;;1.88;0.65;;;;;;;14.33;100.00;98653.94;5070100;28;20062;-55
2022/09/09 02:42:45;;;;;;;1.45;0.60;;;;;;;14.29;100.00;98649.91;5083809;28;20086;-57
2022/09/09 02:45:48;;;;;;;1.00;0.40;;;;;;;14.21;100.00;98655.84;5082989;28;20036;-53
2022/09/09 02:48:45;;;;;;;1.02;0.60;;;;;;;14.20;100.00;98648.91;5087623;28;20078;-54
2022/09/09 02:52:00;;;;;;;2.35;0.50;;;;;;;14.39;100.00;98644.69;5079496;28;20422;-55
2022/09/09 02:54:50;;;;;;;0.50;0.35;;;;;;;14.72;100.00;98657.69;5091114;28;20123;-54
2022/09/09 02:57:36;;;;;;;0.30;0.20;;;;;;;15.14;100.00;98657.53;5090380;28;20573;-53
2022/09/09 03:00:27;;;;;;;0.47;0.30;;;;;;;15.42;100.00;98653.38;5089025;28;21034;-57
2022/09/09 03:03:16;;;;;;;0.45;0.25;;;;;;;15.60;100.00;98656.94;5083016;28;20042;-54
2022/09/09 03:06:01;;;;;;;0.60;0.30;;;;;;;15.71;99.73;98666.56;5075461;28;20089;-56
2022/09/09 03:08:46;;;;;;;2.55;0.45;;;;;;;15.98;97.90;98666.78;5090083;28;20044;-57
2022/09/09 03:11:32;;;;;;;0.40;0.20;;;;;;;16.01;99.38;98661.25;5104683;28;20043;-57
2022/09/09 03:14:20;;;;;;;1.48;0.28;;;;;;;15.95;97.90;98659.13;5090456;28;20427;-57
2022/09/09 03:17:06;;;;;;;0.40;0.22;;;;;;;15.87;98.43;98662.47;5077894;28;20428;-54
2022/09/09 03:19:56;;;;;;;1.10;0.43;;;;;;;15.92;97.97;98651.50;5087246;28;20153;-55
2022/09/09 03:22:41;;;;;;;1.25;0.50;;;;;;;16.03;97.08;98661.91;5089983;28;20135;-55
2022/09/09 03:25:26;;;;;;;1.05;0.55;;;;;;;16.16;97.17;98668.72;5090737;28;20069;-54
2022/09/09 03:28:12;;;;;;;0.55;0.40;;;;;;;16.20;97.39;98667.44;5079104;28;20040;-55
2022/09/09 03:31:10;;;;;;;1.92;0.40;;;;;;;16.07;96.79;98670.41;5089292;28;20475;-55
2022/09/09 03:34:00;;;;;;;3.15;0.60;;;;;;;16.15;97.10;98659.94;5089856;28;20044;-53
2022/09/09 03:36:51;;;;;;;0.50;0.30;;;;;;;16.13;97.20;98644.25;5088876;28;20075;-54
2022/09/09 03:39:37;;;;;;;0.80;0.30;;;;;;;16.27;95.83;98650.03;5071185;28;20122;-51
2022/09/09 03:42:23;;;;;;;0.50;0.22;;;;;;;16.36;96.27;98646.53;5066387;28;20093;-55
2022/09/09 03:45:11;;;;;;;0.35;0.20;;;;;;;16.58;95.05;98655.03;5083775;28;20125;-53
2022/09/09 03:47:57;;;;;;;0.60;0.30;;;;;;;16.72;94.79;98656.38;5090683;28;20047;-55
2022/09/09 03:50:47;;;;;;;0.50;0.35;;;;;;;16.67;92.37;98665.72;5090914;28;20032;-53
2022/09/09 03:53:33;;;;;;;0.95;0.65;;;;;;;16.15;93.75;98657.31;5090555;28;20036;-57
2022/09/09 03:56:18;;;;;;;0.95;0.60;;;;;;;15.82;95.71;98649.72;5062131;28;20107;-54
2022/09/09 03:59:03;;;;;;;0.98;0.70;;;;;;;15.41;98.07;98657.81;5073196;28;20056;-61
2022/09/09 04:01:49;;;;;;;1.30;0.60;;;;;;;15.08;100.00;98651.97;5081664;28;20072;-57
2022/09/09 04:04:38;;;;;;;1.92;0.60;;;;;;;14.94;100.00;98653.19;5068634;28;20036;-56
2022/09/09 04:07:27;;;;;;;2.47;0.30;;;;;;;15.37;100.00;98651.16;5057407;28;20043;-54
2022/09/09 04:10:13;;;;;;;0.95;0.55;;;;;;;15.72;100.00;98656.81;5089632;28;20136;-53
2022/09/09 04:12:59;;;;;;;1.95;0.85;;;;;;;15.88;98.93;98649.13;5060606;28;20127;-51
2022/09/09 04:15:49;;;;;;;2.08;0.60;;;;;;;16.01;98.43;98640.13;5090112;28;20378;-57
2022/09/09 04:18:34;;;;;;;1.10;0.47;;;;;;;16.21;97.62;98655.88;5088926;28;20092;-56
2022/09/09 04:21:20;;;;;;;0.50;0.40;;;;;;;16.38;96.28;98649.03;5085065;28;20064;-58
2022/09/09 04:24:07;;;;;;;1.40;0.60;;;;;;;16.46;97.07;98658.84;5090024;28;20122;-48
2022/09/09 04:26:52;;;;;;;1.30;0.50;;;;;;;16.62;94.96;98666.16;5089804;28;20100;-56
2022/09/09 04:29:37;;;;;;;2.45;0.80;;;;;;;16.60;95.52;98670.75;5075441;28;20036;-54
2022/09/09 04:32:22;;;;;;;3.97;1.10;;;;;;;16.66;97.06;98674.63;5089874;28;20071;-48
2022/09/09 04:35:07;;;;;;;1.17;0.60;;;;;;;16.91;96.36;98672.28;5088594;28;20117;-50
2022/09/09 04:37:52;;;;;;;6.68;1.15;;;;;;;16.81;94.08;98674.97;5089926;28;20088;-57
2022/09/09 04:40:42;;;;;;;1.75;0.80;;;;;;;16.50;93.05;98671.63;5088741;28;20039;-54
2022/09/09 04:43:27;;;;;;;2.83;0.65;;;;;;;16.07;95.52;98667.75;5073057;28;20130;-61
2022/09/09 04:46:13;;;;;;;2.85;0.80;;;;;;;15.95;98.46;98673.19;5082267;28;20480;-52
2022/09/09 04:48:57;;;;;;;2.15;0.68;;;;;;;16.25;95.92;98681.88;5087393;28;20043;-56
2022/09/09 04:51:49;;;;;;;1.05;0.70;;;;;;;15.84;95.72;98683.91;5089262;28;20036;-54
2022/09/09 04:54:35;;;;;;;4.18;0.70;;;;;;;15.52;98.45;98678.78;5085098;28;20044;-51
2022/09/09 04:57:20;;;;;;;1.48;0.63;;;;;;;15.15;100.00;98682.09;5078209;28;20047;-57
2022/09/09 05:00:07;;;;;;;1.30;0.65;;;;;;;14.99;100.00;98687.91;5072937;28;20475;-56
2022/09/09 05:02:58;;;;;;;0.80;0.60;;;;;;;14.90;100.00;98679.84;5086147;28;20424;-53
2022/09/09 05:05:44;;;;;;;1.30;0.80;;;;;;;14.95;100.00;98678.59;5078701;28;20048;-50
2022/09/09 05:08:29;;;;;;;1.15;0.75;;;;;;;15.30;100.00;98689.59;5085440;28;20116;-51
2022/09/09 05:11:25;;;;;;;3.42;0.80;;;;;;;15.47;100.00;98693.38;5085732;28;20515;-53
2022/09/09 05:14:14;;;;;;;0.80;0.50;;;;;;;15.41;99.30;98694.75;5076206;28;20059;-52
2022/09/09 05:16:59;;;;;;;1.23;0.70;;;;;;;15.56;99.66;98702.25;5085222;28;20043;-45
2022/09/09 05:19:44;;;;;;;2.17;1.10;;;;;;;16.08;97.82;98688.75;5085996;28;20064;-52
2022/09/09 05:22:30;;;;;;;4.60;1.90;;;;;;;16.79;98.44;98695.44;5082022;28;20142;-55
2022/09/09 05:25:15;;;;;;;4.50;1.98;;;;;;;16.98;94.62;98694.50;5088838;28;20097;-53
2022/09/09 05:28:00;;;;;;;3.03;1.38;;;;;;;17.02;92.92;98697.69;5092835;28;20443;-53
2022/09/09 05:30:45;;;;;;;3.30;1.00;;;;;;;17.31;88.76;98697.53;5087863;28;20099;-53
2022/09/09 05:33:31;;;;;;;2.38;0.98;;;;;;;17.17;92.42;98692.75;5085005;28;20052;-50
2022/09/09 05:36:19;;;;;;;4.35;1.17;;;;;;;17.21;91.70;98702.91;5087579;28;20170;-54
2022/09/09 05:39:05;;;;;;;3.50;1.35;;;;;;;17.49;90.12;98707.28;5085954;28;20489;-53
2022/09/09 05:41:52;;;;;;;3.70;1.15;;;;;;;18.14;87.79;98700.03;5087371;28;20182;-53
2022/09/09 05:44:37;;;;;;;4.85;1.42;;;;;;;18.46;85.92;98701.19;5089496;28;20036;-53
2022/09/09 05:47:21;;;;;;;9.05;1.63;;;;;;;18.74;85.58;98702.81;5087693;28;20558;-53
2022/09/09 05:50:07;;;;;;;10.50;9.48;;;;;;;18.92;84.24;98693.91;5085035;28;20042;-50
2022/09/09 05:52:54;;;;;;;17.40;15.65;;;;;;;19.31;82.88;98700.50;5086741;28;20062;-52
2022/09/09 05:55:38;;;;;;;12.32;11.15;;;;;;;19.47;82.37;98697.03;5082109;28;20061;-53
2022/09/09 05:58:24;;;;;;;6.38;4.53;;;;;;;19.69;81.26;98689.41;5087247;28;20158;-52
2022/09/09 06:01:30;;;;;;;8.48;6.18;;;;;;;20.19;83.43;98690.19;5087920;28;20055;-56
2022/09/09 06:04:16;;;;;;;14.38;7.25;;;;;;;20.25;81.63;98682.56;5074325;28;20548;-56
2022/09/09 06:07:02;;;;;;;3.80;1.60;;;;;;;20.43;74.73;98679.69;5083994;28;20047;-57
2022/09/09 06:09:48;;;;;;;9.38;5.00;;;;;;;20.66;78.40;98684.25;5085137;28;20055;-60
2022/09/09 06:12:33;;;;;;;3.78;2.40;;;;;;;20.81;72.73;98689.66;5074529;28;20053;-58
2022/09/09 06:15:20;;;;;;;6.15;2.75;;;;;;;20.80;76.10;98699.47;5085232;28;20440;-58
2022/09/09 06:18:05;;;;;;;2.30;0.73;;;;;;;20.02;76.74;98696.53;5076680;28;20046;-58
2022/09/09 06:21:00;;;;;;;2.85;1.23;;;;;;;19.62;78.64;98689.22;5086928;28;20084;-57
2022/09/09 06:23:46;;;;;;;2.58;0.50;;;;;;;19.39;79.00;98691.72;5086922;28;20044;-58
2022/09/09 06:26:33;;;;;;;4.03;1.27;;;;;;;19.66;79.20;98682.59;5105427;28;20396;-55
2022/09/09 06:29:19;;;;;;;1.30;0.60;;;;;;;20.08;75.82;98681.75;5074598;28;20036;-54
2022/09/09 06:32:04;;;;;;;2.78;0.60;;;;;;;20.55;72.91;98682.78;5063675;28;20028;-59
2022/09/09 06:34:49;;;;;;;1.70;0.70;;;;;;;21.19;69.71;98678.31;5086736;28;20035;-56
2022/09/09 06:37:34;;;;;;;3.38;1.20;;;;;;;21.04;71.51;98673.75;5076567;28;20044;-57
2022/09/09 06:40:20;;;;;;;1.73;0.50;;;;;;;20.46;69.75;98670.50;5059690;28;20047;-56
2022/09/09 06:43:05;;;;;;;0.90;0.40;;;;;;;20.94;68.72;98677.66;5090777;28;20135;-54
2022/09/09 06:46:06;;;;;;;1.48;0.57;;;;;;;21.83;65.81;98684.38;5088846;28;20040;-57
2022/09/09 06:48:55;;;;;;;0.50;0.40;;;;;;;21.42;65.86;98681.00;5073517;28;20051;-53
2022/09/09 06:51:43;;;;;;;1.90;0.60;;;;;;;20.65;71.35;98677.25;5077252;28;20832;-53
2022/09/09 06:54:29;;;;;;;1.88;0.50;;;;;;;20.68;72.70;98666.25;5090178;28;20358;-53
2022/09/09 06:57:14;;;;;;;3.45;0.65;;;;;;;21.39;71.61;98681.34;5106778;28;20046;-46
2022/09/09 06:59:59;;;;;;;2.55;0.70;;;;;;;21.94;65.43;98677.75;5092162;28;20333;-53
2022/09/09 07:02:45;;;;;;;0.73;0.40;;;;;;;22.17;64.32;98694.69;5091366;28;20028;-59
2022/09/09 07:05:30;;;;;;;1.38;0.43;;;;;;;22.60;63.03;98691.41;5087886;28;20036;-60
2022/09/09 07:08:17;;;;;;;1.83;0.50;;;;;;;22.83;61.49;98695.81;5091241;28;20028;-59
2022/09/09 07:11:07;;;;;;;0.55;0.47;;;;;;;22.55;64.56;98691.94;5090720;28;20161;-59
2022/09/09 07:13:53;;;;;;;1.50;0.60;;;;;;;22.85;64.05;98699.13;5077670;28;20040;-60
2022/09/09 07:16:42;;;;;;;2.35;1.38;;;;;;;21.84;64.83;98701.16;5091285;28;20097;-59
2022/09/09 07:19:28;;;;;;;1.98;0.70;;;;;;;21.95;69.63;98691.91;5090671;28;20036;-60
2022/09/09 07:22:14;;;;;;;0.95;0.77;;;;;;;21.74;71.38;98690.75;5055496;28;20502;-60
2022/09/09 07:25:01;;;;;;;2.25;0.85;;;;;;;22.47;68.41;98689.38;5069316;28;20040;-60
2022/09/09 07:27:45;;;;;;;1.10;0.55;;;;;;;22.32;67.42;98692.03;5090278;28;20044;-59
2022/09/09 07:30:31;;;;;;;1.83;0.95;;;;;;;21.88;64.25;98697.16;5087118;28;20111;-60
2022/09/09 07:33:17;;;;;;;2.67;0.80;;;;;;;21.88;65.62;98697.16;5090275;28;20154;-59
2022/09/09 07:36:18;;;;;;;0.73;0.50;;;;;;;22.61;61.82;98691.25;5089333;28;20498;-59
2022/09/09 07:39:09;;;;;;;1.60;0.57;;;;;;;22.71;66.37;98698.13;5088863;28;20074;-59
2022/09/09 07:41:54;;;;;;;4.40;0.73;;;;;;;25.05;60.90;98697.72;5090271;28;20483;-60
2022/09/09 07:44:40;;;;;;;2.05;0.60;;;;;;;25.33;62.45;98694.06;5085579;28;20044;-60
2022/09/09 07:47:31;;;;;;;2.33;0.77;;;;;;;25.86;56.74;98700.53;5089235;28;20036;-60
2022/09/09 07:50:17;;;;;;;2.15;0.50;;;;;;;25.44;57.09;98693.47;5083321;28;20040;-60
2022/09/09 07:53:02;;;;;;;1.00;0.60;;;;;;;25.54;58.14;98690.38;5080709;28;20483;-60
2022/09/09 07:55:47;;;;;;;1.27;0.50;;;;;;;26.48;53.69;98687.84;5070547;28;20127;-60
2022/09/09 07:58:33;;;;;;;1.00;0.60;;;;;;;26.84;57.12;98691.00;5076062;28;20042;-59
2022/09/09 08:01:30;;;;;;;1.52;0.82;;;;;;;27.37;51.23;98687.19;5090471;28;20040;-61
2022/09/09 08:04:18;;;;;;;1.23;0.63;;;;;;;27.85;55.46;98694.94;5089816;28;20063;-59
2022/09/09 08:07:04;;;;;;;2.30;0.80;;;;;;;28.22;51.00;98691.50;5085213;28;20495;-59
2022/09/09 08:09:55;;;;;;;0.98;0.50;;;;;;;27.68;49.53;98682.06;5085583;28;20430;-60
2022/09/09 08:12:44;;;;;;;1.05;0.60;;;;;;;26.97;51.61;98676.66;5085893;28;20066;-59
2022/09/09 08:15:30;;;;;;;1.73;0.43;;;;;;;28.13;48.94;98683.69;5083572;28;20601;-60
2022/09/09 08:18:15;;;;;;;1.65;0.40;;;;;;;28.94;48.68;98687.31;5088133;28;20242;-60
2022/09/09 08:21:11;;;;;;;1.20;0.65;;;;;;;29.75;44.51;98679.97;5103920;28;20040;-59
2022/09/09 08:23:58;;;;;;;2.92;0.65;;;;;;;29.70;46.04;98685.22;5089102;28;20200;-60
2022/09/09 08:26:47;;;;;;;4.30;0.50;;;;;;;29.77;44.46;98688.63;5089657;28;20420;-60
2022/09/09 08:29:32;;;;;;;1.65;0.38;;;;;;;29.51;45.29;98691.50;5101694;28;20040;-59
2022/09/09 08:32:16;;;;;;;1.63;0.40;;;;;;;29.27;45.46;98683.38;5087956;28;20048;-59
2022/09/09 08:35:03;;;;;;;2.20;0.55;;;;;;;28.72;46.15;98697.78;5088066;28;20043;-59
2022/09/09 08:37:48;;;;;;;0.60;0.40;;;;;;;28.37;47.54;98686.56;5088599;28;20435;-59
2022/09/09 08:40:39;;;;;;;0.82;0.50;;;;;;;27.14;48.30;98691.28;5088276;28;20169;-60
2022/09/09 08:43:27;;;;;;;2.70;0.50;;;;;;;27.07;48.31;98690.50;5088435;28;20076;-59
2022/09/09 08:46:43;;;;;;;3.10;0.47;;;;;;;27.09;50.81;98688.44;5085951;28;20075;-59
2022/09/09 08:50:13;;;;;;;3.03;0.77;;;;;;;27.02;49.80;98685.78;5078829;28;20067;-58
2022/09/09 08:53:26;;;;;;;1.05;0.50;;;;;;;27.58;48.44;98687.06;5030446;28;20120;-58
2022/09/09 08:56:23;;;;;;;1.73;0.57;;;;;;;29.14;45.64;98687.09;5025461;28;20045;-58
2022/09/09 08:59:16;;;;;;;0.63;0.40;;;;;;;28.00;46.28;98695.44;5039967;28;20132;-60
2022/09/09 09:02:16;;;;;;;;;;;;;;;26.79;49.06;98697.84;5031933;28;20045;-59
2022/09/09 09:05:27;;;;;;;0.90;0.47;;;;;;;25.73;52.65;98695.16;5017883;28;20014;-59
2022/09/09 09:08:40;;;;;;;0.65;0.50;;;;;;;25.54;53.30;98702.97;5032071;28;20052;-59
2022/09/09 09:11:26;;;;;;;3.05;0.50;;;;;;;25.21;54.48;98700.03;5044172;28;20049;-59
2022/09/09 09:14:23;;;;;;;0.70;0.40;;;;;;;26.98;50.70;98691.78;5046642;28;20048;-59
2022/09/09 09:17:20;;;;;;;3.03;0.50;;;;;;;26.74;48.48;98692.28;5046677;28;20044;-60
2022/09/09 09:20:13;;;;;;;0.40;0.32;;;;;;;28.09;45.54;98692.44;5031792;28;20094;-59
2022/09/09 09:23:04;;;;;;;0.73;0.30;;;;;;;28.74;43.68;98690.31;5042119;28;20059;-59
2022/09/09 09:25:55;;;;;;;1.58;0.40;;;;;;;28.97;42.84;98691.50;5046292;28;20125;-60
2022/09/09 09:28:42;;;;;;;2.72;0.40;;;;;;;29.06;42.47;98679.31;5048425;28;20521;-59
2022/09/09 09:31:33;;;;;;;0.68;0.30;;;;;;;29.80;40.59;98680.09;5074127;28;20039;-60
2022/09/09 09:34:18;;;;;;;0.68;0.40;;;;;;;29.69;40.21;98691.69;5068303;28;20051;-58
2022/09/09 09:37:18;;;;;;;0.20;0.20;;;;;;;30.48;38.07;98684.25;5085378;28;20042;-59
2022/09/09 09:40:16;;;;;;;0.68;0.20;;;;;;;31.07;34.42;98683.25;5049968;28;20048;-59
2022/09/09 09:43:01;;;;;;;0.65;0.17;;;;;;;31.15;33.03;98671.22;5085746;28;20131;-59
2022/09/09 09:45:48;;;;;;;0.20;0.20;;;;;;;31.92;29.56;98670.81;5088407;28;20475;-59
2022/09/09 09:48:34;;;;;;;2.42;0.20;;;;;;;31.99;30.56;98661.72;5084173;28;20024;-59
2022/09/09 09:51:22;;;;;;;0.40;0.10;;;;;;;31.68;28.69;98664.78;5074068;28;20480;-60
2022/09/09 09:54:13;;;;;;;0.50;0.20;;;;;;;32.17;27.24;98661.44;5090845;28;20066;-59
2022/09/09 09:57:09;;;;;;;1.00;0.13;;;;;;;31.62;28.48;98660.34;5088055;28;20098;-60
2022/09/09 10:00:05;;;;;;;1.33;0.20;;;;;;;32.13;28.17;98662.19;5086205;28;20040;-60
2022/09/09 10:02:59;;;;;;;0.17;0.03;;;;;;;32.57;28.28;98661.41;5091973;28;20692;-60
2022/09/09 10:05:46;;;;;;;1.45;0.20;;;;;;;31.98;28.23;98651.94;5090033;28;20066;-60
2022/09/09 10:08:34;;;;;;;0.75;0.20;;;;;;;31.28;30.01;98642.22;5093436;28;20098;-59
2022/09/09 10:11:42;;;;;;;3.40;0.30;;;;;;;30.54;31.29;98656.28;5092478;28;20043;-60
2022/09/09 10:15:15;;;;;;;0.95;0.20;;;;;;;28.58;35.01;98651.34;5088765;28;20048;-59
2022/09/09 10:18:09;;;;;;;1.30;0.40;;;;;;;28.19;35.81;98643.47;5051197;28;20105;-59
2022/09/09 10:21:09;;;;;;;2.13;0.32;;;;;;;28.07;36.66;98656.84;5046446;28;20068;-59
2022/09/09 10:24:12;;;;;;;1.30;0.30;;;;;;;29.47;35.42;98657.97;5045930;28;20040;-59
2022/09/09 10:27:12;;;;;;;0.90;0.40;;;;;;;29.54;35.73;98662.44;5050168;28;20164;-60
2022/09/09 10:30:19;;;;;;;1.33;0.20;;;;;;;29.71;35.44;98646.38;5050028;28;20127;-59
2022/09/09 10:33:08;;;;;;;0.70;0.10;;;;;;;29.56;35.80;98653.03;5042225;28;20913;-59
2022/09/09 10:36:22;;;;;;;0.30;0.20;;;;;;;30.35;34.17;98648.34;5045260;28;20036;-60
2022/09/09 10:39:31;;;;;;;1.05;0.47;;;;;;;28.97;37.00;98640.28;5048351;28;20499;-59
2022/09/09 10:42:30;;;;;;;0.90;0.50;;;;;;;28.94;37.26;98646.09;5025779;28;20500;-59
2022/09/09 10:45:45;;;;;;;1.17;0.40;;;;;;;29.30;36.42;98657.00;5042838;28;20037;-60
2022/09/09 10:49:18;;;;;;;1.50;0.40;;;;;;;28.03;36.66;98661.84;5050478;28;20072;-59
2022/09/09 10:52:21;;;;;;;2.20;0.30;;;;;;;27.34;38.61;98665.31;5062330;28;20593;-60
2022/09/09 10:55:25;;;;;;;1.25;0.25;;;;;;;28.70;34.70;98657.59;5091912;28;20044;-60
2022/09/09 10:58:23;;;;;;;0.50;0.22;;;;;;;31.21;33.11;98654.00;5089045;28;20130;-59
2022/09/09 11:01:16;;;;;;;1.17;0.43;;;;;;;32.38;30.27;98658.97;5090156;28;20047;-60
2022/09/09 11:04:25;;;;;;;1.10;0.28;;;;;;;32.44;30.48;98647.16;5089133;28;20123;-61
2022/09/09 11:07:15;;;;;;;0.40;0.20;;;;;;;32.79;29.54;98644.28;5091049;28;20040;-60
2022/09/09 11:10:06;;;;;;;0.60;0.23;;;;;;;30.86;30.13;98644.22;5092080;28;20036;-61
2022/09/09 11:12:58;;;;;;;0.88;0.20;;;;;;;30.87;30.72;98645.84;5091243;28;20062;-61
2022/09/09 11:15:54;;;;;;;2.20;0.20;;;;;;;31.74;29.88;98652.13;5086763;28;20040;-60
2022/09/09 11:18:42;;;;;;;1.52;0.32;;;;;;;31.63;29.42;98654.69;5090938;28;20044;-60
2022/09/09 11:21:42;;;;;;;2.00;0.30;;;;;;;31.96;27.99;98655.75;5091146;28;20059;-59
2022/09/09 11:24:41;;;;;;;1.05;0.25;;;;;;;33.47;26.97;98648.44;5091826;28;20425;-61
2022/09/09 11:27:32;;;;;;;1.20;0.30;;;;;;;33.48;26.24;98631.06;5091850;28;20040;-60
2022/09/09 11:30:40;;;;;;;1.42;0.25;;;;;;;31.71;28.46;98631.81;5080881;28;20681;-61
2022/09/09 11:33:33;;;;;;;0.98;0.32;;;;;;;31.13;29.90;98630.06;5085919;28;20083;-60
2022/09/09 11:36:38;;;;;;;0.40;0.20;;;;;;;30.89;28.91;98632.91;5090675;28;20055;-60
2022/09/09 11:39:27;;;;;;;1.08;0.10;;;;;;;30.56;29.18;98646.06;5091655;28;20458;-60
2022/09/09 11:42:19;;;;;;;0.80;0.20;;;;;;;30.43;29.73;98640.91;5089949;28;21060;-60
2022/09/09 11:45:19;;;;;;;1.23;0.20;;;;;;;30.67;29.05;98652.47;5088171;28;20115;-60
2022/09/09 11:48:05;;;;;;;1.20;0.20;;;;;;;30.89;28.81;98651.00;5088872;28;20040;-60
2022/09/09 11:51:03;;;;;;;0.32;0.10;;;;;;;31.23;28.21;98648.34;5090621;28;20430;-60
2022/09/09 11:53:58;;;;;;;2.60;0.40;;;;;;;31.31;26.95;98639.84;5089579;28;20413;-59
2022/09/09 11:56:44;;;;;;;0.32;0.15;;;;;;;31.23;26.22;98640.25;5090452;28;20172;-60
2022/09/09 11:59:31;;;;;;;0.28;0.10;;;;;;;31.14;27.38;98637.09;5081867;28;20043;-59
2022/09/09 12:02:26;;;;;;;0.40;0.20;;;;;;;30.98;28.15;98636.84;5091083;28;20040;-60
2022/09/09 12:05:13;;;;;;;0.90;0.28;;;;;;;30.36;28.64;98641.88;5090903;28;20071;-59
2022/09/09 12:08:00;;;;;;;1.50;0.40;;;;;;;28.80;30.97;98623.88;5089811;28;20091;-60
2022/09/09 12:10:55;;;;;;;1.17;0.28;;;;;;;29.93;28.74;98627.75;5089172;28;20126;-60
2022/09/09 12:13:41;;;;;;;0.90;0.15;;;;;;;31.01;27.99;98610.41;5087689;28;20040;-60
2022/09/09 12:16:35;;;;;;;0.52;0.15;;;;;;;30.98;27.54;98617.09;5084260;28;20040;-60
2022/09/09 12:19:22;;;;;;;1.20;0.22;;;;;;;31.66;28.63;98624.44;5087503;28;20127;-61
2022/09/09 12:22:21;;;;;;;1.13;0.35;;;;;;;32.28;28.64;98623.66;5079473;28;20036;-61
2022/09/09 12:25:22;;;;;;;0.73;0.30;;;;;;;33.30;26.20;98618.72;5078295;28;20115;-60
2022/09/09 12:28:09;;;;;;;5.25;0.50;;;;;;;33.35;26.42;98605.19;5086547;28;20131;-59
2022/09/09 12:31:25;;;;;;;2.20;0.40;;;;;;;33.49;26.71;98602.03;5083511;28;20044;-59
2022/09/09 12:34:16;;;;;;;0.73;0.17;;;;;;;32.66;27.34;98599.44;5081800;28;20071;-58
2022/09/09 12:37:14;;;;;;;1.25;0.20;;;;;;;31.48;27.94;98606.59;5085240;28;20110;-60
2022/09/09 12:40:19;;;;;;;0.60;0.20;;;;;;;29.88;30.27;98606.84;5086029;28;20128;-59
2022/09/09 12:43:22;;;;;;;0.52;0.20;;;;;;;28.86;31.65;98593.31;5083728;28;20048;-59
2022/09/09 12:46:29;;;;;;;1.45;0.22;;;;;;;28.83;32.26;98608.09;5084282;28;20307;-60
2022/09/09 12:49:41;;;;;;;0.40;0.10;;;;;;;29.09;32.02;98605.25;5086081;28;20098;-60
2022/09/09 12:52:32;;;;;;;0.57;0.20;;;;;;;29.32;31.96;98595.56;5086272;28;20048;-58
2022/09/09 12:55:29;;;;;;;1.27;0.20;;;;;;;29.50;30.73;98589.25;5086893;28;20419;-57
2022/09/09 12:58:18;;;;;;;0.43;0.20;;;;;;;28.95;31.26;98577.66;5085440;28;20542;-72
2022/09/09 13:01:05;;;;;;;1.58;0.30;;;;;;;28.88;31.16;98573.19;5088302;28;20533;-63
2022/09/09 13:03:50;;;;;;;1.92;0.50;;;;;;;30.29;29.94;98575.56;5083369;28;20047;-63
2022/09/09 13:06:35;;;;;;;0.28;0.20;;;;;;;29.63;30.80;98572.84;5084967;28;20631;-59
2022/09/09 13:09:20;;;;;;;1.85;0.30;;;;;;;29.08;31.48;98569.41;5081859;28;20040;-59
2022/09/09 13:12:10;;;;;;;0.85;0.25;;;;;;;29.18;31.08;98560.75;5086579;28;20059;-59
2022/09/09 13:14:56;;;;;;;0.85;0.20;;;;;;;28.92;31.76;98559.25;5083621;28;20047;-61
2022/09/09 13:17:41;;;;;;;0.75;0.30;;;;;;;29.35;29.84;98551.94;5086867;28;20044;-59
2022/09/09 13:20:27;;;;;;;1.75;0.30;;;;;;;29.92;29.36;98552.41;5086366;28;20376;-58
2022/09/09 13:23:12;;;;;;;2.92;0.55;;;;;;;29.73;29.46;98544.44;5077348;28;20059;-60
2022/09/09 13:25:59;;;;;;;0.88;0.30;;;;;;;29.85;30.58;98544.44;5081667;28;20056;-52
2022/09/09 13:28:46;;;;;;;0.77;0.22;;;;;;;29.99;27.96;98548.50;5086716;28;20817;-64